Country Club Hills, Missouri
Current Conditions -  °F | °C
As of 3:51 PM on Tuesday 21 Oct 2014 (Local Time) from KSTL Reporting Station
Clear Clear  
Wind Chill: 19°   Ceiling: Unl
Heat Index: 19°   Visibility: 10mi
Dew Point:   Wind: 8mph
Humidity: 42%   Direction: 40°NE
Pressure: 30.11"   Gusts: NA
Location:  38.7423°N, 90.2608°W
Report Text: KSTL 212051Z 04007KT 10SM CLR 19/06 A3011 RMK AO2 SLP196 T01940061 56006
Loading
Personal Weather Stations






























Interactive Weather Map
Tropical Storm Tracking
New forecast layout! Learn more

10-Day Weather Forecast

Advertisements
Track Severe Weather on mobile